Time;durP1;ratioP1;P1;durP2;ratioP2;P2;SDS_P1;SDS_P2;PMS_P1;PMS_P2;Temp;Humidity;BMP_temperature;BMP_pressure;BME280_temperature;BME280_humidity;BME280_pressure;Samples;Min_cycle;Max_cycle;Signal;HPM_P1;HPM_P2
2023/11/24 00:02:36;;;;;;;13.18;3.45;;;9.30;99.90;;;;;;6271662;22;20015;-64
2023/11/24 00:05:22;;;;;;;8.38;2.70;;;9.20;99.90;;;;;;6270971;22;20015;-64
2023/11/24 00:08:08;;;;;;;7.60;1.98;;;9.20;99.90;;;;;;6272034;22;20461;-64
2023/11/24 00:10:54;;;;;;;11.52;3.10;;;9.20;99.90;;;;;;6271198;22;20437;-64
2023/11/24 00:13:41;;;;;;;9.55;2.40;;;9.10;99.90;;;;;;6270885;22;20078;-64
2023/11/24 00:16:28;;;;;;;7.10;2.40;;;9.10;99.90;;;;;;6270604;22;20006;-64
2023/11/24 00:19:15;;;;;;;5.07;2.03;;;9.10;99.90;;;;;;6270338;22;20008;-62
2023/11/24 00:22:01;;;;;;;6.28;2.83;;;9.10;99.90;;;;;;6270762;22;20012;-63
2023/11/24 00:24:51;;;;;;;8.93;2.53;;;9.00;99.90;;;;;;6272243;22;20373;-62
2023/11/24 00:27:37;;;;;;;9.48;3.03;;;9.00;99.90;;;;;;6270573;22;20451;-64
2023/11/24 00:30:23;;;;;;;10.65;2.90;;;8.90;99.90;;;;;;6271948;22;20003;-65
2023/11/24 00:33:09;;;;;;;10.38;3.17;;;8.90;99.90;;;;;;6271555;22;20004;-64
2023/11/24 00:35:55;;;;;;;10.85;3.08;;;9.00;99.90;;;;;;6269166;22;20008;-64
2023/11/24 00:38:41;;;;;;;9.13;2.70;;;9.00;99.90;;;;;;6271986;22;20330;-65
2023/11/24 00:41:30;;;;;;;9.63;2.58;;;9.00;99.90;;;;;;6270943;22;20022;-66
2023/11/24 00:44:16;;;;;;;10.32;3.13;;;8.90;99.90;;;;;;6270838;22;20390;-66
2023/11/24 00:47:02;;;;;;;10.45;2.92;;;8.90;99.90;;;;;;6270166;22;20020;-65
2023/11/24 00:49:48;;;;;;;9.73;2.70;;;8.90;99.90;;;;;;6270824;22;20019;-64
2023/11/24 00:52:34;;;;;;;12.05;2.88;;;8.80;99.90;;;;;;6269097;22;20049;-64
2023/11/24 00:55:20;;;;;;;9.63;3.05;;;8.90;99.90;;;;;;6271223;22;20318;-65
2023/11/24 00:58:06;;;;;;;11.40;3.35;;;8.80;99.90;;;;;;6270751;22;20457;-65
2023/11/24 01:00:53;;;;;;;8.30;2.50;;;8.80;99.90;;;;;;6270523;22;20267;-66
2023/11/24 01:03:39;;;;;;;5.55;1.83;;;8.80;99.90;;;;;;6270059;22;20016;-65
2023/11/24 01:06:26;;;;;;;9.15;3.17;;;8.80;99.90;;;;;;6272408;22;20074;-66
2023/11/24 01:09:12;;;;;;;8.60;2.63;;;8.70;99.90;;;;;;6272642;22;20321;-64
2023/11/24 01:11:58;;;;;;;11.18;4.60;;;8.70;99.90;;;;;;6247650;22;20015;-65
2023/11/24 01:14:44;;;;;;;11.43;2.88;;;8.70;99.90;;;;;;6271630;22;20342;-65
2023/11/24 01:17:30;;;;;;;14.93;3.53;;;8.70;99.90;;;;;;6270374;22;20468;-64
2023/11/24 01:20:16;;;;;;;7.30;2.47;;;8.70;99.90;;;;;;6271076;22;20008;-65
2023/11/24 01:23:04;;;;;;;15.45;3.22;;;8.70;99.90;;;;;;6268700;22;20011;-65
2023/11/24 01:25:50;;;;;;;14.95;3.75;;;8.70;99.90;;;;;;6270826;22;20016;-65
2023/11/24 01:28:36;;;;;;;9.18;2.63;;;8.70;99.90;;;;;;6271198;22;20091;-66
2023/11/24 01:31:22;;;;;;;8.63;2.95;;;8.70;99.90;;;;;;6268923;22;20091;-66
2023/11/24 01:34:08;;;;;;;16.98;4.18;;;8.70;99.90;;;;;;6269321;22;20007;-66
2023/11/24 01:36:54;;;;;;;15.30;2.95;;;8.70;99.90;;;;;;6270971;22;20026;-66
2023/11/24 01:39:40;;;;;;;16.60;4.93;;;8.70;99.90;;;;;;6271987;22;20521;-67
2023/11/24 01:42:26;;;;;;;12.43;3.25;;;8.70;99.90;;;;;;6270501;22;20138;-66
2023/11/24 01:45:12;;;;;;;11.38;2.97;;;8.60;99.90;;;;;;6270186;22;20331;-67
2023/11/24 01:47:58;;;;;;;6.82;2.30;;;8.50;99.90;;;;;;6269397;22;20011;-66
2023/11/24 01:50:44;;;;;;;9.63;2.47;;;8.40;99.90;;;;;;6268963;22;20016;-66
2023/11/24 01:53:30;;;;;;;6.40;2.10;;;8.40;99.90;;;;;;6270516;22;20066;-64
2023/11/24 01:56:16;;;;;;;8.73;2.20;;;8.10;99.90;;;;;;6271125;22;20065;-64
2023/11/24 01:59:03;;;;;;;6.43;1.45;;;7.90;99.90;;;;;;6271918;22;20008;-65
2023/11/24 02:01:49;;;;;;;6.90;2.20;;;7.70;99.90;;;;;;6270203;22;20091;-65
2023/11/24 02:04:35;;;;;;;3.95;1.42;;;7.50;99.90;;;;;;6270875;22;20082;-64
2023/11/24 02:07:22;;;;;;;4.10;1.40;;;7.40;99.90;;;;;;6270079;22;20548;-64
2023/11/24 02:10:11;;;;;;;2.70;1.60;;;7.30;99.90;;;;;;6268125;22;20007;-65
2023/11/24 02:12:57;;;;;;;6.85;1.65;;;7.20;99.90;;;;;;6279948;22;20018;-66
2023/11/24 02:15:44;;;;;;;2.83;1.20;;;7.00;99.90;;;;;;6282232;22;20011;-66
2023/11/24 02:18:30;;;;;;;3.58;1.10;;;7.00;99.90;;;;;;6268848;22;20012;-67
2023/11/24 02:21:17;;;;;;;4.40;1.30;;;6.90;99.90;;;;;;6269374;22;20314;-65
2023/11/24 02:24:06;;;;;;;2.08;1.00;;;6.90;99.90;;;;;;6270593;22;20011;-65
2023/11/24 02:26:52;;;;;;;3.35;1.27;;;6.90;99.90;;;;;;6267798;22;20512;-65
2023/11/24 02:29:38;;;;;;;2.40;1.20;;;6.90;99.90;;;;;;6271001;22;20023;-65
2023/11/24 02:32:23;;;;;;;1.70;1.02;;;6.80;99.90;;;;;;6271485;22;20425;-66
2023/11/24 02:35:09;;;;;;;5.20;2.00;;;6.80;99.90;;;;;;6270708;22;20434;-64
2023/11/24 02:37:56;;;;;;;4.90;1.92;;;6.70;99.90;;;;;;6268555;22;20019;-64
2023/11/24 02:40:43;;;;;;;2.75;1.13;;;6.70;99.90;;;;;;6269348;22;20011;-63
2023/11/24 02:43:29;;;;;;;1.52;0.90;;;6.70;99.90;;;;;;6269127;22;20038;-64
2023/11/24 02:46:15;;;;;;;4.40;1.27;;;6.70;99.90;;;;;;6267930;22;20026;-64
2023/11/24 02:49:01;;;;;;;5.30;1.70;;;6.70;99.90;;;;;;6270830;22;20019;-65
2023/11/24 02:51:47;;;;;;;5.05;2.03;;;6.60;99.90;;;;;;6269970;22;20023;-64
2023/11/24 02:54:33;;;;;;;9.02;1.70;;;6.60;99.90;;;;;;6269702;22;20007;-65
2023/11/24 02:57:19;;;;;;;7.53;1.90;;;6.60;99.90;;;;;;6270957;22;20011;-64
2023/11/24 03:00:06;;;;;;;5.45;1.92;;;6.60;99.90;;;;;;6269126;22;20004;-64
2023/11/24 03:02:52;;;;;;;6.03;2.28;;;6.60;99.90;;;;;;6269143;22;20015;-62
2023/11/24 03:05:38;;;;;;;4.03;1.73;;;6.60;99.90;;;;;;6270326;22;20053;-63
2023/11/24 03:08:26;;;;;;;9.25;3.28;;;6.60;99.90;;;;;;6269858;22;20008;-64
2023/11/24 03:11:12;;;;;;;6.88;2.20;;;6.60;99.90;;;;;;6269517;22;20015;-64
2023/11/24 03:13:58;;;;;;;8.50;2.13;;;6.60;99.90;;;;;;6269636;22;20430;-63
2023/11/24 03:16:45;;;;;;;6.40;2.38;;;6.60;99.90;;;;;;6267746;22;20387;-63
2023/11/24 03:19:31;;;;;;;5.13;2.35;;;6.50;99.90;;;;;;6268969;22;20010;-65
2023/11/24 03:22:17;;;;;;;7.15;2.28;;;6.70;99.90;;;;;;6270095;22;20012;-66
2023/11/24 03:25:04;;;;;;;9.95;2.17;;;6.60;99.90;;;;;;6272166;22;20046;-66
2023/11/24 03:27:50;;;;;;;7.53;2.15;;;6.60;99.90;;;;;;6273135;22;20019;-66
2023/11/24 03:30:35;;;;;;;7.63;2.13;;;6.60;99.90;;;;;;6272571;22;20115;-66
2023/11/24 03:33:21;;;;;;;6.55;2.40;;;6.70;99.90;;;;;;6251520;22;20091;-66
2023/11/24 03:36:08;;;;;;;11.68;2.90;;;6.70;99.90;;;;;;6272023;22;20014;-66
2023/11/24 03:38:54;;;;;;;8.73;2.90;;;6.70;99.90;;;;;;6270753;22;20340;-67
2023/11/24 03:41:41;;;;;;;8.38;2.35;;;6.70;99.90;;;;;;6271317;22;20014;-66
2023/11/24 03:44:27;;;;;;;8.30;2.40;;;6.70;99.90;;;;;;6270775;22;20043;-66
2023/11/24 03:47:12;;;;;;;14.80;3.28;;;6.80;99.90;;;;;;6273623;22;20049;-66
2023/11/24 03:50:01;;;;;;;5.97;2.50;;;6.80;99.90;;;;;;6271876;22;20270;-66
2023/11/24 03:52:47;;;;;;;14.80;3.17;;;6.80;99.90;;;;;;6270881;22;20330;-66
2023/11/24 03:55:33;;;;;;;10.02;3.78;;;6.90;99.90;;;;;;6271046;22;20441;-66
2023/11/24 03:58:19;;;;;;;13.70;4.00;;;7.00;99.90;;;;;;6270958;22;20011;-66
2023/11/24 04:01:05;;;;;;;11.75;2.70;;;7.00;99.90;;;;;;6273321;22;20015;-66
2023/11/24 04:03:54;;;;;;;10.70;3.40;;;7.10;99.90;;;;;;6271511;22;20004;-66
2023/11/24 04:06:40;;;;;;;11.25;4.13;;;7.10;99.90;;;;;;6271003;22;20400;-66
2023/11/24 04:09:26;;;;;;;8.25;2.53;;;7.10;99.90;;;;;;6271653;22;20337;-67
2023/11/24 04:12:12;;;;;;;10.15;3.13;;;7.10;99.90;;;;;;6271622;22;20007;-68
2023/11/24 04:14:57;;;;;;;9.20;3.10;;;7.10;99.90;;;;;;6272578;22;20093;-68
2023/11/24 04:17:45;;;;;;;10.45;3.00;;;7.20;99.90;;;;;;6270749;22;20016;-67
2023/11/24 04:20:31;;;;;;;5.45;2.45;;;7.20;99.90;;;;;;6273014;22;20433;-67
2023/11/24 04:23:18;;;;;;;13.75;2.75;;;7.20;99.90;;;;;;6271028;22;20012;-67
2023/11/24 04:26:06;;;;;;;11.18;2.35;;;7.20;99.90;;;;;;6272356;22;20023;-67
2023/11/24 04:28:54;;;;;;;11.10;3.13;;;7.20;99.90;;;;;;6271799;22;20086;-67
2023/11/24 04:31:40;;;;;;;7.82;2.08;;;7.20;99.90;;;;;;6269881;22;20426;-66
2023/11/24 04:34:26;;;;;;;7.68;1.60;;;7.20;99.90;;;;;;6271223;22;20008;-66
2023/11/24 04:37:12;;;;;;;8.07;2.13;;;7.10;99.90;;;;;;6270592;22;20022;-67
2023/11/24 04:39:58;;;;;;;6.72;2.00;;;7.00;99.90;;;;;;6271709;22;20019;-66
2023/11/24 04:42:47;;;;;;;6.55;1.60;;;6.90;99.90;;;;;;6271757;22;20011;-69
2023/11/24 04:45:35;;;;;;;4.13;1.27;;;6.90;99.90;;;;;;6271579;22;20459;-68
2023/11/24 04:48:21;;;;;;;3.20;1.58;;;6.80;99.90;;;;;;6269341;22;20512;-67
2023/11/24 04:51:07;;;;;;;5.78;1.50;;;6.80;99.90;;;;;;6270293;22;20035;-68
2023/11/24 04:53:53;;;;;;;3.95;1.58;;;6.70;99.90;;;;;;6271625;22;20007;-67
2023/11/24 04:56:39;;;;;;;5.68;1.60;;;6.70;99.90;;;;;;6270927;22;20607;-68
2023/11/24 04:59:27;;;;;;;6.22;2.58;;;6.70;99.90;;;;;;6271600;22;20004;-68
2023/11/24 05:02:13;;;;;;;5.75;1.80;;;6.70;99.90;;;;;;6269781;22;20021;-68
2023/11/24 05:04:59;;;;;;;5.60;1.42;;;6.70;99.90;;;;;;6270571;22;20334;-69
2023/11/24 05:07:45;;;;;;;3.00;1.33;;;6.70;99.90;;;;;;6269488;22;20347;-68
2023/11/24 05:10:31;;;;;;;3.25;1.92;;;6.70;99.90;;;;;;6272258;22;20008;-67
2023/11/24 05:13:17;;;;;;;7.38;2.00;;;6.70;99.90;;;;;;6271030;22;20011;-68
2023/11/24 05:16:03;;;;;;;6.10;2.00;;;6.60;99.90;;;;;;6272140;22;20007;-68
2023/11/24 05:18:49;;;;;;;5.60;1.67;;;6.60;99.90;;;;;;6270758;22;20007;-68
2023/11/24 05:21:37;;;;;;;5.18;1.83;;;6.60;99.90;;;;;;6271299;22;20014;-67
2023/11/24 05:24:23;;;;;;;6.65;2.13;;;6.60;99.90;;;;;;6270586;22;20110;-67
2023/11/24 05:27:09;;;;;;;8.10;1.92;;;6.60;99.90;;;;;;6269855;22;20412;-67
2023/11/24 05:29:55;;;;;;;9.00;2.05;;;6.60;99.90;;;;;;6285448;22;20012;-67
2023/11/24 05:32:41;;;;;;;4.50;1.63;;;6.60;99.90;;;;;;6281598;22;20023;-66
2023/11/24 05:35:27;;;;;;;4.95;1.38;;;6.60;99.90;;;;;;6270052;22;20037;-67
2023/11/24 05:38:13;;;;;;;8.23;1.95;;;6.60;99.90;;;;;;6271204;22;20384;-66
2023/11/24 05:40:59;;;;;;;6.38;1.67;;;6.60;99.90;;;;;;6271827;22;20004;-66
2023/11/24 05:43:45;;;;;;;5.85;2.17;;;6.60;99.90;;;;;;6269840;22;20090;-66
2023/11/24 05:46:31;;;;;;;10.95;2.00;;;6.50;99.90;;;;;;6269819;22;20125;-66
2023/11/24 05:49:17;;;;;;;4.43;1.60;;;6.50;99.90;;;;;;6269812;22;20453;-67
2023/11/24 05:52:03;;;;;;;9.23;2.83;;;6.50;99.90;;;;;;6271333;22;20016;-66
2023/11/24 05:54:49;;;;;;;4.65;2.10;;;6.50;99.90;;;;;;6270122;22;20086;-66
2023/11/24 05:57:35;;;;;;;6.15;2.33;;;6.50;99.90;;;;;;6269405;22;20012;-69
2023/11/24 06:00:21;;;;;;;6.35;1.60;;;6.50;99.90;;;;;;6267302;22;20085;-71
2023/11/24 06:03:07;;;;;;;6.03;2.28;;;6.50;99.90;;;;;;6270786;22;20011;-70
2023/11/24 06:05:54;;;;;;;7.40;2.22;;;6.50;99.90;;;;;;6269100;22;20016;-69
2023/11/24 06:08:39;;;;;;;6.50;1.67;;;6.50;99.90;;;;;;6270291;22;20333;-68
2023/11/24 06:11:25;;;;;;;6.47;2.10;;;6.60;99.90;;;;;;6270657;22;20008;-68
2023/11/24 06:14:11;;;;;;;5.03;1.90;;;6.60;99.90;;;;;;6269570;22;20004;-67
2023/11/24 06:16:57;;;;;;;8.32;2.60;;;6.60;99.90;;;;;;6268369;22;20446;-67
2023/11/24 06:19:43;;;;;;;8.32;1.90;;;6.60;99.90;;;;;;6269296;22;20459;-67
2023/11/24 06:22:29;;;;;;;4.60;2.10;;;6.60;99.90;;;;;;6269701;22;20456;-68
2023/11/24 06:25:15;;;;;;;5.55;1.90;;;6.60;99.90;;;;;;6271083;22;20057;-67
2023/11/24 06:28:01;;;;;;;8.45;2.10;;;6.70;99.90;;;;;;6271728;22;20102;-67
2023/11/24 06:30:47;;;;;;;9.23;3.08;;;6.70;99.90;;;;;;6269031;22;20350;-67
2023/11/24 06:33:33;;;;;;;8.60;1.98;;;6.60;99.90;;;;;;6269600;22;20405;-68
2023/11/24 06:36:19;;;;;;;7.05;2.90;;;6.70;99.90;;;;;;6271133;22;20090;-67
2023/11/24 06:39:10;;;;;;;6.85;1.85;;;6.70;99.90;;;;;;6271506;22;20031;-68
2023/11/24 06:41:56;;;;;;;9.38;2.47;;;6.70;99.90;;;;;;6269614;22;20012;-68
2023/11/24 06:44:43;;;;;;;13.00;2.03;;;6.80;99.90;;;;;;6270332;22;20023;-68
2023/11/24 06:47:29;;;;;;;6.72;2.28;;;6.80;99.90;;;;;;6269614;22;20345;-67
2023/11/24 06:50:15;;;;;;;6.45;2.22;;;6.80;99.90;;;;;;6270169;22;20019;-67
2023/11/24 06:53:01;;;;;;;5.53;1.75;;;6.90;99.90;;;;;;6270371;22;20043;-67
2023/11/24 06:55:47;;;;;;;4.30;2.17;;;6.90;99.90;;;;;;6271351;22;20015;-66
2023/11/24 06:58:33;;;;;;;10.70;2.30;;;6.90;99.90;;;;;;6267084;22;20011;-69
2023/11/24 07:01:32;;;;;;;11.60;2.92;;;6.90;99.90;;;;;;6269614;22;20038;-68
2023/11/24 07:04:18;;;;;;;6.45;2.53;;;6.90;99.90;;;;;;6269716;22;20022;-70
2023/11/24 07:07:04;;;;;;;8.45;2.90;;;6.90;99.90;;;;;;6268348;22;20016;-69
2023/11/24 07:09:50;;;;;;;10.15;3.50;;;6.90;99.90;;;;;;6266162;22;20012;-70
2023/11/24 07:12:36;;;;;;;5.47;2.72;;;7.00;99.90;;;;;;6268278;22;20046;-70
2023/11/24 07:15:22;;;;;;;12.05;2.30;;;6.90;99.90;;;;;;6268453;22;20004;-69
2023/11/24 07:18:09;;;;;;;8.50;2.50;;;7.00;99.90;;;;;;6269489;22;20022;-70
2023/11/24 07:20:55;;;;;;;5.88;2.25;;;7.00;99.90;;;;;;6269082;22;20007;-69
2023/11/24 07:23:41;;;;;;;6.22;2.13;;;7.10;99.90;;;;;;6268844;22;20077;-70
2023/11/24 07:26:28;;;;;;;10.55;2.67;;;7.00;99.90;;;;;;6266300;22;20353;-69
2023/11/24 07:29:15;;;;;;;7.43;2.03;;;7.00;99.90;;;;;;6268166;22;20007;-70
2023/11/24 07:32:02;;;;;;;7.03;2.63;;;6.90;99.90;;;;;;6266134;22;20015;-69
2023/11/24 07:34:48;;;;;;;5.25;1.85;;;7.00;99.90;;;;;;6269618;22;20012;-70
2023/11/24 07:37:34;;;;;;;8.50;2.97;;;7.00;99.90;;;;;;6268401;22;20012;-71
2023/11/24 07:40:20;;;;;;;8.80;4.30;;;7.00;99.90;;;;;;6245319;22;20380;-70
2023/11/24 07:43:06;;;;;;;7.65;2.22;;;7.00;99.90;;;;;;6268603;22;20019;-70
2023/11/24 07:45:52;;;;;;;5.95;2.40;;;6.90;99.90;;;;;;6268630;22;20023;-70
2023/11/24 07:48:38;;;;;;;7.82;3.65;;;7.00;99.90;;;;;;6268665;22;20457;-69
2023/11/24 07:51:24;;;;;;;6.75;2.03;;;7.00;99.90;;;;;;6270084;22;20012;-69
2023/11/24 07:54:10;;;;;;;5.22;2.38;;;6.90;99.90;;;;;;6268465;22;20319;-70
2023/11/24 07:56:56;;;;;;;5.93;2.35;;;6.90;99.90;;;;;;6268352;22;20011;-69
2023/11/24 07:59:42;;;;;;;9.52;2.90;;;6.90;99.90;;;;;;6268339;22;20452;-68
2023/11/24 08:02:28;;;;;;;8.85;2.58;;;6.90;99.90;;;;;;6269782;22;20008;-70
2023/11/24 08:05:16;;;;;;;6.25;2.58;;;6.80;99.90;;;;;;6269359;22;20047;-71
2023/11/24 08:08:02;;;;;;;7.68;2.22;;;6.90;99.90;;;;;;6267293;22;20453;-70
2023/11/24 08:10:48;;;;;;;7.85;2.40;;;7.00;99.90;;;;;;6269397;22;20091;-68
2023/11/24 08:13:34;;;;;;;15.98;2.85;;;7.00;99.90;;;;;;6271522;22;20011;-71
2023/11/24 08:16:20;;;;;;;8.38;2.47;;;7.00;99.90;;;;;;6270513;22;20008;-68
2023/11/24 08:19:08;;;;;;;10.00;3.08;;;7.00;99.90;;;;;;6271198;22;20096;-68
2023/11/24 08:21:53;;;;;;;8.93;2.47;;;7.10;99.90;;;;;;6269911;22;20039;-68
2023/11/24 08:24:39;;;;;;;11.65;2.90;;;7.00;99.90;;;;;;6271043;22;20094;-67
2023/11/24 08:27:26;;;;;;;9.68;3.45;;;7.00;99.90;;;;;;6270966;22;20016;-68
2023/11/24 08:30:12;;;;;;;6.00;2.53;;;7.10;99.90;;;;;;6247410;22;20457;-68
2023/11/24 08:32:58;;;;;;;6.75;2.00;;;7.10;99.90;;;;;;6270999;22;20480;-69
2023/11/24 08:35:44;;;;;;;9.30;2.72;;;7.10;99.90;;;;;;6270032;22;20401;-69
2023/11/24 08:38:30;;;;;;;11.20;2.67;;;7.20;99.90;;;;;;6271274;22;20344;-69
2023/11/24 08:41:19;;;;;;;5.95;2.58;;;7.20;99.90;;;;;;6269091;22;20015;-68
2023/11/24 08:44:06;;;;;;;3.90;2.22;;;7.20;99.90;;;;;;6278500;22;20003;-69
2023/11/24 08:46:52;;;;;;;6.10;2.20;;;7.30;99.90;;;;;;6286455;22;20020;-69
2023/11/24 08:49:37;;;;;;;11.68;3.22;;;7.20;99.90;;;;;;6273799;22;20653;-68
2023/11/24 08:52:23;;;;;;;6.75;2.47;;;7.20;99.90;;;;;;6270775;22;20338;-69
2023/11/24 08:55:09;;;;;;;6.35;2.28;;;7.20;99.80;;;;;;6271727;22;20010;-68
2023/11/24 08:57:59;;;;;;;9.07;2.08;;;7.20;99.90;;;;;;6268637;22;20357;-68
2023/11/24 09:00:49;;;;;;;6.90;1.80;;;7.30;99.80;;;;;;6269841;22;20007;-69
2023/11/24 09:03:35;;;;;;;7.43;2.65;;;7.30;99.90;;;;;;6270768;22;20370;-68
2023/11/24 09:06:25;;;;;;;4.78;2.25;;;7.30;99.90;;;;;;6270476;22;20016;-67
2023/11/24 09:09:12;;;;;;;5.30;1.70;;;7.40;99.90;;;;;;6269265;22;20044;-68
2023/11/24 09:11:58;;;;;;;8.88;2.45;;;7.40;99.80;;;;;;6269524;22;20019;-69
2023/11/24 09:14:44;;;;;;;7.65;2.10;;;7.40;99.70;;;;;;6271355;22;20011;-67
2023/11/24 09:17:30;;;;;;;10.32;2.80;;;7.40;99.50;;;;;;6269120;22;20039;-69
2023/11/24 09:20:17;;;;;;;9.93;2.65;;;7.40;99.80;;;;;;6267656;22;20008;-68
2023/11/24 09:23:04;;;;;;;9.75;2.53;;;7.40;99.60;;;;;;6270906;22;20051;-68
2023/11/24 09:25:50;;;;;;;10.93;2.60;;;7.50;99.60;;;;;;6269101;22;20015;-70
2023/11/24 09:28:36;;;;;;;5.80;2.20;;;7.50;99.40;;;;;;6271097;22;20007;-69
2023/11/24 09:31:22;;;;;;;6.63;2.22;;;7.40;99.30;;;;;;6269771;22;20016;-68
2023/11/24 09:34:08;;;;;;;6.85;3.08;;;7.50;99.30;;;;;;6269784;22;20023;-69
2023/11/24 09:36:54;;;;;;;8.00;3.00;;;7.50;99.20;;;;;;6271731;22;20039;-69
2023/11/24 09:39:40;;;;;;;8.63;2.53;;;7.50;99.20;;;;;;6270758;22;20004;-69
2023/11/24 09:42:36;;;;;;;9.15;2.05;;;7.50;99.10;;;;;;6269195;22;20026;-68
2023/11/24 09:45:24;;;;;;;10.23;3.10;;;7.40;99.10;;;;;;6268789;22;20357;-68
2023/11/24 09:48:12;;;;;;;6.90;2.65;;;7.40;99.00;;;;;;6248382;22;20094;-68
2023/11/24 09:51:07;;;;;;;8.40;2.40;;;7.40;99.20;;;;;;6268079;22;20081;-68
2023/11/24 09:53:54;;;;;;;13.85;2.05;;;7.50;99.10;;;;;;6267172;22;20011;-69
2023/11/24 09:56:43;;;;;;;13.48;2.45;;;7.50;99.00;;;;;;6269128;22;20004;-69
2023/11/24 09:59:28;;;;;;;11.00;1.92;;;7.50;99.00;;;;;;6267425;22;20472;-68
2023/11/24 10:02:20;;;;;;;10.52;3.35;;;7.50;98.70;;;;;;6267966;22;20409;-68
2023/11/24 10:05:07;;;;;;;6.82;2.33;;;7.30;98.30;;;;;;6268976;22;20011;-69
2023/11/24 10:07:54;;;;;;;4.13;2.30;;;7.30;98.70;;;;;;6267567;22;20087;-65
2023/11/24 10:10:40;;;;;;;5.40;1.85;;;7.40;98.60;;;;;;6267372;22;20008;-67
2023/11/24 10:13:26;;;;;;;5.63;2.40;;;7.40;98.80;;;;;;6268088;22;20016;-66
2023/11/24 10:16:13;;;;;;;6.25;2.05;;;7.50;98.70;;;;;;6266871;22;20572;-65
2023/11/24 10:19:00;;;;;;;6.45;2.33;;;7.50;98.80;;;;;;6267963;22;20446;-65
2023/11/24 10:21:46;;;;;;;7.63;2.50;;;7.40;98.00;;;;;;6268139;22;20008;-65
2023/11/24 10:24:34;;;;;;;6.15;2.05;;;7.50;98.50;;;;;;6268375;22;20012;-65
2023/11/24 10:27:22;;;;;;;5.88;3.35;;;7.50;98.60;;;;;;6269796;22;20020;-65
2023/11/24 10:30:11;;;;;;;9.10;3.03;;;7.50;98.50;;;;;;6268341;22;20095;-65
2023/11/24 10:32:58;;;;;;;9.40;2.70;;;7.50;98.50;;;;;;6244825;22;20176;-66
2023/11/24 10:35:47;;;;;;;8.43;2.03;;;7.60;98.50;;;;;;6268093;22;20471;-66
2023/11/24 10:38:35;;;;;;;5.32;2.33;;;7.60;98.50;;;;;;6267391;22;20508;-65
2023/11/24 10:41:23;;;;;;;8.15;2.63;;;7.60;98.50;;;;;;6266509;22;20000;-66
2023/11/24 10:44:12;;;;;;;7.57;2.75;;;7.70;98.40;;;;;;6268601;22;20011;-65
2023/11/24 10:47:04;;;;;;;7.97;2.35;;;7.70;98.40;;;;;;6269982;22;20019;-65
2023/11/24 10:50:02;;;;;;;5.75;3.30;;;7.80;98.30;;;;;;6220671;22;1105053;-65
2023/11/24 10:53:09;;;;;;;8.10;2.08;;;7.80;98.20;;;;;;6269418;22;20020;-66
2023/11/24 10:55:58;;;;;;;7.07;2.83;;;7.80;98.20;;;;;;6269480;22;20004;-65
2023/11/24 10:58:45;;;;;;;8.55;2.47;;;7.90;98.20;;;;;;6269614;22;20022;-64
2023/11/24 11:01:32;;;;;;;4.30;2.00;;;7.90;98.20;;;;;;6269258;22;20344;-64
2023/11/24 11:04:19;;;;;;;8.07;2.83;;;8.00;98.00;;;;;;6269056;22;20320;-66
2023/11/24 11:07:14;;;;;;;10.55;2.50;;;7.90;97.90;;;;;;6269442;22;20028;-66
2023/11/24 11:10:12;;;;;;;6.97;3.67;;;8.00;97.70;;;;;;6270176;22;20069;-65
2023/11/24 11:13:00;;;;;;;5.00;1.90;;;7.90;97.60;;;;;;6270233;22;20103;-65
2023/11/24 11:15:50;;;;;;;6.40;2.33;;;7.90;97.60;;;;;;6271635;22;20014;-66
2023/11/24 11:18:37;;;;;;;8.15;2.90;;;8.00;97.60;;;;;;6267614;22;20058;-65
2023/11/24 11:21:22;;;;;;;5.55;2.60;;;7.90;97.60;;;;;;6269841;22;20011;-66
2023/11/24 11:24:23;;;;;;;7.07;2.47;;;8.00;97.70;;;;;;6269793;22;20020;-65
2023/11/24 11:27:23;;;;;;;5.15;2.10;;;8.00;97.50;;;;;;6249631;22;20451;-65
2023/11/24 11:30:15;;;;;;;4.85;1.90;;;8.10;97.30;;;;;;6269928;22;20553;-67
2023/11/24 11:33:19;;;;;;;29.15;7.95;;;8.00;97.30;;;;;;6265485;22;20015;-65
2023/11/24 11:36:10;;;;;;;6.63;2.80;;;8.10;97.30;;;;;;6268676;22;20310;-65
2023/11/24 11:38:56;;;;;;;4.68;2.25;;;8.10;97.20;;;;;;6268914;22;20493;-66
2023/11/24 11:41:44;;;;;;;10.40;2.15;;;8.00;96.70;;;;;;6268590;22;20015;-65
2023/11/24 11:44:33;;;;;;;7.00;2.95;;;8.00;97.00;;;;;;6269688;22;20430;-63
2023/11/24 11:50:09;;;;;;;5.38;2.28;;;8.10;97.00;;;;;;6270694;22;20016;-64
2023/11/24 11:53:00;;;;;;;10.45;3.03;;;8.20;97.00;;;;;;6270252;22;20008;-66
2023/11/24 11:55:47;;;;;;;5.75;2.17;;;8.20;96.60;;;;;;6253364;22;20071;-65
2023/11/24 11:58:34;;;;;;;3.83;1.70;;;8.30;96.70;;;;;;6279421;22;20008;-64
2023/11/24 12:01:21;;;;;;;7.57;2.28;;;8.30;96.70;;;;;;6273983;22;20404;-65
2023/11/24 12:04:08;;;;;;;36.03;10.60;;;8.30;96.70;;;;;;6271339;22;20007;-65
2023/11/24 12:06:55;;;;;;;8.48;2.35;;;8.40;96.70;;;;;;6270924;22;20515;-65
2023/11/24 12:09:41;;;;;;;8.23;1.92;;;8.40;96.70;;;;;;6249366;22;20034;-65
2023/11/24 12:12:27;;;;;;;9.82;2.67;;;8.50;96.60;;;;;;6270719;22;20094;-65
2023/11/24 12:15:17;;;;;;;9.23;2.65;;;8.40;96.20;;;;;;6271222;22;20012;-65
2023/11/24 12:18:06;;;;;;;7.93;2.80;;;8.40;96.20;;;;;;6270384;22;20364;-65
2023/11/24 12:20:52;;;;;;;6.63;2.38;;;8.40;96.40;;;;;;6270801;22;20011;-65
2023/11/24 12:23:38;;;;;;;5.03;2.67;;;8.30;96.00;;;;;;6271277;22;20091;-64
2023/11/24 12:26:24;;;;;;;7.45;2.88;;;8.30;96.20;;;;;;6271512;22;20457;-65
2023/11/24 12:29:13;;;;;;;7.00;2.72;;;8.30;96.20;;;;;;6271198;22;20007;-65
2023/11/24 12:32:04;;;;;;;9.07;2.20;;;8.30;96.10;;;;;;6270820;22;20019;-65
2023/11/24 12:34:50;;;;;;;5.38;2.08;;;8.30;96.20;;;;;;6271613;22;20007;-65
2023/11/24 12:37:40;;;;;;;7.32;3.10;;;8.30;96.20;;;;;;6269560;22;20011;-64
2023/11/24 12:40:27;;;;;;;7.85;2.80;;;8.40;96.20;;;;;;6269434;22;20008;-64
2023/11/24 12:43:14;;;;;;;7.95;2.50;;;8.50;96.30;;;;;;6269808;22;20383;-65
2023/11/24 12:46:00;;;;;;;4.53;2.50;;;8.50;96.30;;;;;;6269823;22;20469;-66
2023/11/24 12:48:47;;;;;;;6.68;2.25;;;8.50;95.90;;;;;;6271952;22;20035;-64
2023/11/24 12:51:33;;;;;;;7.45;2.35;;;8.50;96.20;;;;;;6269723;22;20008;-65
2023/11/24 12:54:19;;;;;;;3.78;2.00;;;8.50;96.10;;;;;;6270974;22;20082;-65
2023/11/24 12:57:06;;;;;;;9.80;2.72;;;8.60;96.20;;;;;;6269006;22;20011;-65
2023/11/24 12:59:52;;;;;;;7.30;2.05;;;8.60;96.20;;;;;;6269505;22;20012;-65
2023/11/24 13:02:39;;;;;;;5.25;2.25;;;8.60;96.10;;;;;;6269679;22;20051;-65
2023/11/24 13:05:28;;;;;;;8.68;2.10;;;8.60;96.10;;;;;;6270774;22;20074;-64
2023/11/24 13:08:16;;;;;;;5.38;1.88;;;8.60;96.00;;;;;;6269593;22;20102;-65
2023/11/24 13:11:02;;;;;;;4.18;1.70;;;8.60;96.00;;;;;;6269212;22;20042;-66
2023/11/24 13:13:48;;;;;;;4.68;1.55;;;8.60;96.00;;;;;;6271974;22;20342;-66
2023/11/24 13:16:36;;;;;;;8.30;2.30;;;8.60;96.10;;;;;;6271549;22;20011;-66
2023/11/24 13:19:23;;;;;;;5.55;1.85;;;8.60;96.10;;;;;;6269129;22;20047;-65
2023/11/24 13:22:09;;;;;;;4.82;2.25;;;8.70;96.00;;;;;;6269108;22;20034;-65
2023/11/24 13:24:55;;;;;;;7.18;2.58;;;8.60;95.80;;;;;;6269676;22;20012;-65
2023/11/24 13:27:41;;;;;;;7.35;2.15;;;8.60;95.80;;;;;;6269285;22;20445;-71
2023/11/24 13:30:29;;;;;;;3.03;1.67;;;8.50;95.80;;;;;;6266824;22;20007;-70
2023/11/24 13:33:15;;;;;;;7.13;2.75;;;8.40;95.50;;;;;;6270691;22;20481;-71
2023/11/24 13:36:01;;;;;;;6.07;1.90;;;8.40;95.80;;;;;;6270525;22;20087;-70
2023/11/24 13:38:47;;;;;;;3.85;1.58;;;8.30;95.90;;;;;;6270081;22;20019;-71
2023/11/24 13:41:33;;;;;;;4.32;2.15;;;8.20;95.90;;;;;;6270216;22;20004;-69
2023/11/24 13:44:20;;;;;;;6.03;2.25;;;8.10;96.10;;;;;;6270471;22;20019;-70
2023/11/24 13:47:06;;;;;;;8.38;1.65;;;8.10;96.50;;;;;;6268477;22;20108;-72
2023/11/24 13:49:53;;;;;;;5.70;1.70;;;8.00;96.30;;;;;;6269521;22;20023;-71
2023/11/24 13:52:41;;;;;;;2.50;1.67;;;8.00;96.40;;;;;;6269415;22;20345;-71
2023/11/24 13:55:33;;;;;;;4.95;1.80;;;7.90;96.40;;;;;;6268755;22;20065;-71
2023/11/24 13:58:19;;;;;;;6.22;2.20;;;7.90;96.50;;;;;;6270149;22;20011;-70
2023/11/24 14:01:05;;;;;;;3.90;2.00;;;7.80;96.60;;;;;;6268630;22;20400;-70
2023/11/24 14:03:52;;;;;;;2.80;1.50;;;7.80;96.70;;;;;;6268955;22;20069;-71
2023/11/24 14:06:39;;;;;;;3.50;1.50;;;7.70;96.70;;;;;;6267101;22;20024;-70
2023/11/24 14:09:31;;;;;;;3.45;1.75;;;7.70;96.90;;;;;;6269940;22;20750;-70
2023/11/24 14:12:17;;;;;;;3.58;2.03;;;7.60;97.00;;;;;;6269851;22;20003;-72
2023/11/24 14:15:04;;;;;;;4.18;2.20;;;7.60;97.10;;;;;;6271612;22;20008;-65
2023/11/24 14:17:50;;;;;;;5.82;2.30;;;7.60;97.30;;;;;;6268131;22;20016;-67
2023/11/24 14:20:39;;;;;;;5.43;2.10;;;7.50;97.50;;;;;;6266036;22;20087;-67
2023/11/24 14:23:25;;;;;;;6.18;2.53;;;7.50;97.70;;;;;;6267634;22;20016;-66
2023/11/24 14:26:13;;;;;;;6.82;2.20;;;7.50;97.70;;;;;;6269883;22;20023;-66
2023/11/24 14:29:00;;;;;;;4.20;2.20;;;7.40;97.80;;;;;;6268590;22;20465;-68
2023/11/24 14:31:49;;;;;;;6.25;2.30;;;7.40;97.90;;;;;;6269825;22;20015;-67
2023/11/24 14:34:35;;;;;;;6.18;2.20;;;7.50;97.90;;;;;;6270358;22;20015;-66
2023/11/24 14:37:21;;;;;;;4.47;1.80;;;7.50;98.00;;;;;;6270192;22;20015;-67
2023/11/24 14:40:14;;;;;;;6.75;2.10;;;7.40;98.00;;;;;;6269955;22;20035;-66
2023/11/24 14:43:00;;;;;;;4.43;2.08;;;7.40;98.10;;;;;;6248065;22;20069;-67